sensor_id;sensor_type;location;lat;lon;timestamp;P1;durP1;ratioP1;P2;durP2;ratioP2
20721;SDS011;10522;52.198;9.890;2023-07-30T00:00:15;1.70;;;1.40;;
20721;SDS011;10522;52.198;9.890;2023-07-30T00:02:41;2.07;;;1.80;;
20721;SDS011;10522;52.198;9.890;2023-07-30T00:05:06;1.73;;;1.50;;
20721;SDS011;10522;52.198;9.890;2023-07-30T00:07:32;2.27;;;1.50;;
20721;SDS011;10522;52.198;9.890;2023-07-30T00:09:58;2.10;;;1.90;;
20721;SDS011;10522;52.198;9.890;2023-07-30T00:12:23;3.63;;;1.87;;
20721;SDS011;10522;52.198;9.890;2023-07-30T00:14:49;2.00;;;1.80;;
20721;SDS011;10522;52.198;9.890;2023-07-30T00:17:15;1.70;;;1.60;;
20721;SDS011;10522;52.198;9.890;2023-07-30T00:19:40;3.83;;;1.77;;
20721;SDS011;10522;52.198;9.890;2023-07-30T00:22:06;2.97;;;1.50;;
20721;SDS011;10522;52.198;9.890;2023-07-30T00:24:31;2.20;;;2.00;;
20721;SDS011;10522;52.198;9.890;2023-07-30T00:26:57;1.70;;;1.60;;
20721;SDS011;10522;52.198;9.890;2023-07-30T00:29:23;2.03;;;1.70;;
20721;SDS011;10522;52.198;9.890;2023-07-30T00:31:48;2.70;;;1.77;;
20721;SDS011;10522;52.198;9.890;2023-07-30T00:34:14;2.93;;;1.40;;
20721;SDS011;10522;52.198;9.890;2023-07-30T00:36:40;2.70;;;2.00;;
20721;SDS011;10522;52.198;9.890;2023-07-30T00:39:05;1.77;;;1.60;;
20721;SDS011;10522;52.198;9.890;2023-07-30T00:41:31;2.60;;;1.63;;
20721;SDS011;10522;52.198;9.890;2023-07-30T00:43:57;2.77;;;1.77;;
20721;SDS011;10522;52.198;9.890;2023-07-30T00:46:23;1.50;;;1.40;;
20721;SDS011;10522;52.198;9.890;2023-07-30T00:48:48;2.67;;;1.90;;
20721;SDS011;10522;52.198;9.890;2023-07-30T00:51:15;2.93;;;1.80;;
20721;SDS011;10522;52.198;9.890;2023-07-30T00:53:42;1.93;;;1.80;;
20721;SDS011;10522;52.198;9.890;2023-07-30T00:56:07;4.83;;;2.10;;
20721;SDS011;10522;52.198;9.890;2023-07-30T00:58:33;1.90;;;1.80;;
20721;SDS011;10522;52.198;9.890;2023-07-30T01:00:59;2.27;;;2.00;;
20721;SDS011;10522;52.198;9.890;2023-07-30T01:03:25;2.60;;;2.00;;
20721;SDS011;10522;52.198;9.890;2023-07-30T01:05:52;2.17;;;2.00;;
20721;SDS011;10522;52.198;9.890;2023-07-30T01:08:17;3.40;;;1.90;;
20721;SDS011;10522;52.198;9.890;2023-07-30T01:10:43;3.97;;;2.03;;
20721;SDS011;10522;52.198;9.890;2023-07-30T01:13:09;4.90;;;1.80;;
20721;SDS011;10522;52.198;9.890;2023-07-30T01:15:36;3.30;;;1.50;;
20721;SDS011;10522;52.198;9.890;2023-07-30T01:18:02;3.50;;;1.90;;
20721;SDS011;10522;52.198;9.890;2023-07-30T01:20:31;3.67;;;1.90;;
20721;SDS011;10522;52.198;9.890;2023-07-30T01:23:00;2.17;;;1.80;;
20721;SDS011;10522;52.198;9.890;2023-07-30T01:25:27;2.73;;;1.70;;
20721;SDS011;10522;52.198;9.890;2023-07-30T01:27:56;5.30;;;1.93;;
20721;SDS011;10522;52.198;9.890;2023-07-30T01:30:26;5.03;;;1.87;;
20721;SDS011;10522;52.198;9.890;2023-07-30T01:32:54;4.73;;;2.00;;
20721;SDS011;10522;52.198;9.890;2023-07-30T01:35:21;2.20;;;2.00;;
20721;SDS011;10522;52.198;9.890;2023-07-30T01:37:52;3.63;;;2.50;;
20721;SDS011;10522;52.198;9.890;2023-07-30T01:40:18;2.50;;;2.30;;
20721;SDS011;10522;52.198;9.890;2023-07-30T01:42:45;2.23;;;2.03;;
20721;SDS011;10522;52.198;9.890;2023-07-30T01:45:10;5.00;;;2.10;;
20721;SDS011;10522;52.198;9.890;2023-07-30T01:47:36;4.37;;;2.30;;
20721;SDS011;10522;52.198;9.890;2023-07-30T01:50:01;1.93;;;1.60;;
20721;SDS011;10522;52.198;9.890;2023-07-30T01:52:28;2.13;;;1.93;;
20721;SDS011;10522;52.198;9.890;2023-07-30T01:54:53;3.53;;;2.53;;
20721;SDS011;10522;52.198;9.890;2023-07-30T01:57:21;5.70;;;2.03;;
20721;SDS011;10522;52.198;9.890;2023-07-30T01:59:46;3.33;;;2.07;;
20721;SDS011;10522;52.198;9.890;2023-07-30T02:02:12;3.50;;;2.40;;
20721;SDS011;10522;52.198;9.890;2023-07-30T02:04:38;3.73;;;2.03;;
20721;SDS011;10522;52.198;9.890;2023-07-30T02:07:03;2.27;;;2.00;;
20721;SDS011;10522;52.198;9.890;2023-07-30T02:09:29;8.23;;;2.07;;
20721;SDS011;10522;52.198;9.890;2023-07-30T02:11:55;3.30;;;2.33;;
20721;SDS011;10522;52.198;9.890;2023-07-30T02:14:20;5.70;;;2.80;;
20721;SDS011;10522;52.198;9.890;2023-07-30T02:16:46;2.57;;;2.10;;
20721;SDS011;10522;52.198;9.890;2023-07-30T02:19:11;4.40;;;2.40;;
20721;SDS011;10522;52.198;9.890;2023-07-30T02:21:37;4.63;;;2.20;;
20721;SDS011;10522;52.198;9.890;2023-07-30T02:24:07;2.80;;;2.10;;
20721;SDS011;10522;52.198;9.890;2023-07-30T02:26:35;6.03;;;3.43;;
20721;SDS011;10522;52.198;9.890;2023-07-30T02:29:01;3.20;;;2.53;;
20721;SDS011;10522;52.198;9.890;2023-07-30T02:31:26;4.07;;;2.23;;
20721;SDS011;10522;52.198;9.890;2023-07-30T02:33:52;9.97;;;2.60;;
20721;SDS011;10522;52.198;9.890;2023-07-30T02:36:18;8.90;;;2.60;;
20721;SDS011;10522;52.198;9.890;2023-07-30T02:38:43;8.50;;;2.40;;
20721;SDS011;10522;52.198;9.890;2023-07-30T02:41:09;8.20;;;2.70;;
20721;SDS011;10522;52.198;9.890;2023-07-30T02:43:34;4.70;;;2.53;;
20721;SDS011;10522;52.198;9.890;2023-07-30T02:46:00;5.77;;;2.80;;
20721;SDS011;10522;52.198;9.890;2023-07-30T02:48:26;4.73;;;2.50;;
20721;SDS011;10522;52.198;9.890;2023-07-30T02:50:51;3.07;;;2.60;;
20721;SDS011;10522;52.198;9.890;2023-07-30T02:53:17;4.33;;;3.00;;
20721;SDS011;10522;52.198;9.890;2023-07-30T02:55:42;4.67;;;2.93;;
20721;SDS011;10522;52.198;9.890;2023-07-30T02:58:08;6.43;;;2.70;;
20721;SDS011;10522;52.198;9.890;2023-07-30T03:00:34;2.90;;;2.53;;
20721;SDS011;10522;52.198;9.890;2023-07-30T03:02:59;6.73;;;3.00;;
20721;SDS011;10522;52.198;9.890;2023-07-30T03:05:26;6.87;;;2.97;;
20721;SDS011;10522;52.198;9.890;2023-07-30T03:07:52;4.87;;;2.80;;
20721;SDS011;10522;52.198;9.890;2023-07-30T03:10:18;4.63;;;3.10;;
20721;SDS011;10522;52.198;9.890;2023-07-30T03:12:44;5.63;;;2.90;;
20721;SDS011;10522;52.198;9.890;2023-07-30T03:15:09;4.63;;;2.60;;
20721;SDS011;10522;52.198;9.890;2023-07-30T03:17:35;6.47;;;2.53;;
20721;SDS011;10522;52.198;9.890;2023-07-30T03:20:01;3.93;;;2.60;;
20721;SDS011;10522;52.198;9.890;2023-07-30T03:22:28;5.03;;;2.73;;
20721;SDS011;10522;52.198;9.890;2023-07-30T03:24:53;6.83;;;2.73;;
20721;SDS011;10522;52.198;9.890;2023-07-30T03:27:19;4.97;;;2.90;;
20721;SDS011;10522;52.198;9.890;2023-07-30T03:29:45;4.40;;;2.50;;
20721;SDS011;10522;52.198;9.890;2023-07-30T03:32:10;8.90;;;3.23;;
20721;SDS011;10522;52.198;9.890;2023-07-30T03:34:36;4.53;;;2.80;;
20721;SDS011;10522;52.198;9.890;2023-07-30T03:37:02;11.50;;;3.10;;
20721;SDS011;10522;52.198;9.890;2023-07-30T03:39:27;8.20;;;2.60;;
20721;SDS011;10522;52.198;9.890;2023-07-30T03:41:53;7.00;;;2.93;;
20721;SDS011;10522;52.198;9.890;2023-07-30T03:44:19;6.63;;;3.20;;
20721;SDS011;10522;52.198;9.890;2023-07-30T03:46:45;7.17;;;2.63;;
20721;SDS011;10522;52.198;9.890;2023-07-30T03:49:11;4.27;;;2.80;;
20721;SDS011;10522;52.198;9.890;2023-07-30T03:51:36;4.83;;;2.77;;
20721;SDS011;10522;52.198;9.890;2023-07-30T03:54:03;6.17;;;3.03;;
20721;SDS011;10522;52.198;9.890;2023-07-30T03:56:29;6.10;;;3.07;;
20721;SDS011;10522;52.198;9.890;2023-07-30T03:58:55;4.80;;;2.80;;
20721;SDS011;10522;52.198;9.890;2023-07-30T04:01:21;7.50;;;2.57;;
20721;SDS011;10522;52.198;9.890;2023-07-30T04:03:47;6.67;;;2.70;;
20721;SDS011;10522;52.198;9.890;2023-07-30T04:06:12;11.63;;;3.30;;
20721;SDS011;10522;52.198;9.890;2023-07-30T04:08:38;7.67;;;2.93;;
20721;SDS011;10522;52.198;9.890;2023-07-30T04:11:03;6.70;;;2.90;;
20721;SDS011;10522;52.198;9.890;2023-07-30T04:13:29;14.17;;;2.90;;
20721;SDS011;10522;52.198;9.890;2023-07-30T04:15:55;5.60;;;2.80;;
20721;SDS011;10522;52.198;9.890;2023-07-30T04:18:20;7.20;;;3.00;;
20721;SDS011;10522;52.198;9.890;2023-07-30T04:20:47;8.83;;;3.33;;
20721;SDS011;10522;52.198;9.890;2023-07-30T04:23:13;7.30;;;3.10;;
20721;SDS011;10522;52.198;9.890;2023-07-30T04:25:39;13.00;;;3.00;;
20721;SDS011;10522;52.198;9.890;2023-07-30T04:28:05;5.87;;;2.63;;
20721;SDS011;10522;52.198;9.890;2023-07-30T04:30:30;6.77;;;2.70;;
20721;SDS011;10522;52.198;9.890;2023-07-30T04:32:57;10.23;;;3.80;;
20721;SDS011;10522;52.198;9.890;2023-07-30T04:35:22;5.43;;;3.20;;
20721;SDS011;10522;52.198;9.890;2023-07-30T04:37:48;5.50;;;2.63;;
20721;SDS011;10522;52.198;9.890;2023-07-30T04:40:13;10.47;;;3.10;;
20721;SDS011;10522;52.198;9.890;2023-07-30T04:42:39;6.07;;;3.40;;
20721;SDS011;10522;52.198;9.890;2023-07-30T04:45:05;6.00;;;3.20;;
20721;SDS011;10522;52.198;9.890;2023-07-30T04:47:31;6.67;;;2.90;;
20721;SDS011;10522;52.198;9.890;2023-07-30T04:49:57;6.70;;;3.47;;
20721;SDS011;10522;52.198;9.890;2023-07-30T04:52:23;7.93;;;2.90;;
20721;SDS011;10522;52.198;9.890;2023-07-30T04:54:48;7.67;;;3.60;;
20721;SDS011;10522;52.198;9.890;2023-07-30T04:57:14;8.50;;;3.37;;
20721;SDS011;10522;52.198;9.890;2023-07-30T04:59:40;6.73;;;3.80;;
20721;SDS011;10522;52.198;9.890;2023-07-30T05:02:05;7.90;;;4.47;;
20721;SDS011;10522;52.198;9.890;2023-07-30T05:04:31;11.70;;;5.17;;
20721;SDS011;10522;52.198;9.890;2023-07-30T05:06:57;10.93;;;5.80;;
20721;SDS011;10522;52.198;9.890;2023-07-30T05:09:22;11.20;;;5.60;;
20721;SDS011;10522;52.198;9.890;2023-07-30T05:11:48;9.60;;;5.37;;
20721;SDS011;10522;52.198;9.890;2023-07-30T05:14:14;12.03;;;6.47;;
20721;SDS011;10522;52.198;9.890;2023-07-30T05:16:39;11.60;;;5.67;;
20721;SDS011;10522;52.198;9.890;2023-07-30T05:19:05;10.50;;;6.13;;
20721;SDS011;10522;52.198;9.890;2023-07-30T05:21:31;13.53;;;6.83;;
20721;SDS011;10522;52.198;9.890;2023-07-30T05:23:56;13.87;;;7.30;;
20721;SDS011;10522;52.198;9.890;2023-07-30T05:26:22;10.27;;;7.37;;
20721;SDS011;10522;52.198;9.890;2023-07-30T05:28:47;15.27;;;8.43;;
20721;SDS011;10522;52.198;9.890;2023-07-30T05:31:13;16.73;;;8.57;;
20721;SDS011;10522;52.198;9.890;2023-07-30T05:33:39;13.73;;;8.13;;
20721;SDS011;10522;52.198;9.890;2023-07-30T05:36:04;14.03;;;7.87;;
20721;SDS011;10522;52.198;9.890;2023-07-30T05:38:31;15.00;;;8.43;;
20721;SDS011;10522;52.198;9.890;2023-07-30T05:40:56;12.67;;;7.63;;
20721;SDS011;10522;52.198;9.890;2023-07-30T05:43:22;17.87;;;7.73;;
20721;SDS011;10522;52.198;9.890;2023-07-30T05:45:48;12.07;;;6.93;;
20721;SDS011;10522;52.198;9.890;2023-07-30T05:48:13;13.33;;;6.70;;
20721;SDS011;10522;52.198;9.890;2023-07-30T05:50:39;13.53;;;7.40;;
20721;SDS011;10522;52.198;9.890;2023-07-30T05:53:04;10.83;;;6.77;;
20721;SDS011;10522;52.198;9.890;2023-07-30T05:55:30;10.07;;;6.13;;
20721;SDS011;10522;52.198;9.890;2023-07-30T05:57:56;9.17;;;5.60;;
20721;SDS011;10522;52.198;9.890;2023-07-30T06:00:21;11.27;;;6.23;;
20721;SDS011;10522;52.198;9.890;2023-07-30T06:02:47;9.33;;;5.20;;
20721;SDS011;10522;52.198;9.890;2023-07-30T06:05:13;8.60;;;5.20;;
20721;SDS011;10522;52.198;9.890;2023-07-30T06:07:38;12.93;;;5.27;;
20721;SDS011;10522;52.198;9.890;2023-07-30T06:10:04;11.03;;;5.27;;
20721;SDS011;10522;52.198;9.890;2023-07-30T06:12:30;7.43;;;4.47;;
20721;SDS011;10522;52.198;9.890;2023-07-30T06:14:56;11.10;;;5.00;;
20721;SDS011;10522;52.198;9.890;2023-07-30T06:17:22;7.93;;;4.63;;
20721;SDS011;10522;52.198;9.890;2023-07-30T06:19:47;8.97;;;4.10;;
20721;SDS011;10522;52.198;9.890;2023-07-30T06:22:13;9.47;;;4.63;;
20721;SDS011;10522;52.198;9.890;2023-07-30T06:24:39;7.63;;;3.50;;
20721;SDS011;10522;52.198;9.890;2023-07-30T06:27:04;8.00;;;4.20;;
20721;SDS011;10522;52.198;9.890;2023-07-30T06:29:31;8.90;;;3.13;;
20721;SDS011;10522;52.198;9.890;2023-07-30T06:31:56;7.73;;;4.53;;
20721;SDS011;10522;52.198;9.890;2023-07-30T06:34:22;11.50;;;3.40;;
20721;SDS011;10522;52.198;9.890;2023-07-30T06:36:48;6.97;;;3.17;;
20721;SDS011;10522;52.198;9.890;2023-07-30T06:39:13;13.37;;;3.77;;
20721;SDS011;10522;52.198;9.890;2023-07-30T06:41:39;7.90;;;3.53;;
20721;SDS011;10522;52.198;9.890;2023-07-30T06:44:05;6.17;;;3.27;;
20721;SDS011;10522;52.198;9.890;2023-07-30T06:46:30;5.30;;;2.60;;
20721;SDS011;10522;52.198;9.890;2023-07-30T06:48:56;6.03;;;2.77;;
20721;SDS011;10522;52.198;9.890;2023-07-30T06:51:24;5.83;;;2.63;;
20721;SDS011;10522;52.198;9.890;2023-07-30T06:53:50;10.43;;;2.77;;
20721;SDS011;10522;52.198;9.890;2023-07-30T06:56:16;9.23;;;2.57;;
20721;SDS011;10522;52.198;9.890;2023-07-30T06:58:42;5.57;;;2.10;;
20721;SDS011;10522;52.198;9.890;2023-07-30T07:01:08;8.90;;;2.43;;
20721;SDS011;10522;52.198;9.890;2023-07-30T07:03:33;3.40;;;1.90;;
20721;SDS011;10522;52.198;9.890;2023-07-30T07:05:59;5.60;;;2.00;;
20721;SDS011;10522;52.198;9.890;2023-07-30T07:08:25;7.20;;;2.30;;
20721;SDS011;10522;52.198;9.890;2023-07-30T07:10:52;5.67;;;2.40;;
20721;SDS011;10522;52.198;9.890;2023-07-30T07:13:17;7.37;;;2.90;;
20721;SDS011;10522;52.198;9.890;2023-07-30T07:15:44;4.27;;;2.43;;
20721;SDS011;10522;52.198;9.890;2023-07-30T07:18:10;4.53;;;2.47;;
20721;SDS011;10522;52.198;9.890;2023-07-30T07:20:36;3.73;;;2.40;;
20721;SDS011;10522;52.198;9.890;2023-07-30T07:23:02;7.77;;;2.60;;
20721;SDS011;10522;52.198;9.890;2023-07-30T07:25:28;5.93;;;2.50;;
20721;SDS011;10522;52.198;9.890;2023-07-30T07:27:54;9.17;;;2.53;;
20721;SDS011;10522;52.198;9.890;2023-07-30T07:30:22;8.87;;;2.60;;
20721;SDS011;10522;52.198;9.890;2023-07-30T07:32:47;4.73;;;2.10;;
20721;SDS011;10522;52.198;9.890;2023-07-30T07:35:18;7.20;;;2.33;;
20721;SDS011;10522;52.198;9.890;2023-07-30T07:37:45;3.87;;;2.13;;
20721;SDS011;10522;52.198;9.890;2023-07-30T07:40:11;4.10;;;2.37;;
20721;SDS011;10522;52.198;9.890;2023-07-30T07:42:37;7.40;;;2.60;;
20721;SDS011;10522;52.198;9.890;2023-07-30T07:45:05;7.60;;;2.63;;
20721;SDS011;10522;52.198;9.890;2023-07-30T07:47:33;4.27;;;2.33;;
20721;SDS011;10522;52.198;9.890;2023-07-30T07:50:05;4.37;;;2.20;;
20721;SDS011;10522;52.198;9.890;2023-07-30T07:52:31;11.50;;;2.60;;
20721;SDS011;10522;52.198;9.890;2023-07-30T07:54:57;4.13;;;2.30;;
20721;SDS011;10522;52.198;9.890;2023-07-30T07:57:22;3.93;;;2.10;;
20721;SDS011;10522;52.198;9.890;2023-07-30T07:59:48;10.20;;;2.80;;
20721;SDS011;10522;52.198;9.890;2023-07-30T08:02:15;5.97;;;2.30;;
20721;SDS011;10522;52.198;9.890;2023-07-30T08:04:40;4.70;;;2.97;;
20721;SDS011;10522;52.198;9.890;2023-07-30T08:07:06;4.73;;;2.07;;
20721;SDS011;10522;52.198;9.890;2023-07-30T08:09:31;5.23;;;2.60;;
20721;SDS011;10522;52.198;9.890;2023-07-30T08:11:57;2.97;;;2.23;;
20721;SDS011;10522;52.198;9.890;2023-07-30T08:14:24;6.17;;;2.10;;
20721;SDS011;10522;52.198;9.890;2023-07-30T08:16:49;13.43;;;2.80;;
20721;SDS011;10522;52.198;9.890;2023-07-30T08:19:15;4.87;;;2.50;;
20721;SDS011;10522;52.198;9.890;2023-07-30T08:21:41;5.70;;;2.00;;
20721;SDS011;10522;52.198;9.890;2023-07-30T08:24:06;5.80;;;2.40;;
20721;SDS011;10522;52.198;9.890;2023-07-30T08:26:32;6.73;;;2.13;;
20721;SDS011;10522;52.198;9.890;2023-07-30T08:28:57;7.50;;;2.10;;
20721;SDS011;10522;52.198;9.890;2023-07-30T08:31:23;10.60;;;3.70;;
20721;SDS011;10522;52.198;9.890;2023-07-30T08:33:49;7.30;;;2.43;;
20721;SDS011;10522;52.198;9.890;2023-07-30T08:36:14;8.73;;;2.20;;
20721;SDS011;10522;52.198;9.890;2023-07-30T08:38:40;5.00;;;2.00;;
20721;SDS011;10522;52.198;9.890;2023-07-30T08:41:05;7.73;;;2.20;;
20721;SDS011;10522;52.198;9.890;2023-07-30T08:43:31;5.87;;;2.00;;
20721;SDS011;10522;52.198;9.890;2023-07-30T08:45:57;4.20;;;2.00;;
20721;SDS011;10522;52.198;9.890;2023-07-30T08:48:24;4.43;;;1.90;;
20721;SDS011;10522;52.198;9.890;2023-07-30T08:50:50;10.20;;;2.27;;
20721;SDS011;10522;52.198;9.890;2023-07-30T08:53:16;4.40;;;2.60;;
20721;SDS011;10522;52.198;9.890;2023-07-30T08:55:42;7.63;;;2.87;;
20721;SDS011;10522;52.198;9.890;2023-07-30T08:58:08;6.40;;;2.20;;
20721;SDS011;10522;52.198;9.890;2023-07-30T09:00:36;4.97;;;2.00;;
20721;SDS011;10522;52.198;9.890;2023-07-30T09:03:04;4.70;;;2.10;;
20721;SDS011;10522;52.198;9.890;2023-07-30T09:05:30;5.73;;;2.33;;
20721;SDS011;10522;52.198;9.890;2023-07-30T09:07:56;6.80;;;3.43;;
20721;SDS011;10522;52.198;9.890;2023-07-30T09:10:22;8.50;;;2.50;;
20721;SDS011;10522;52.198;9.890;2023-07-30T09:12:57;3.77;;;2.00;;
20721;SDS011;10522;52.198;9.890;2023-07-30T09:15:34;6.03;;;2.47;;
20721;SDS011;10522;52.198;9.890;2023-07-30T09:18:03;7.73;;;2.10;;
20721;SDS011;10522;52.198;9.890;2023-07-30T09:20:36;3.90;;;2.00;;
20721;SDS011;10522;52.198;9.890;2023-07-30T09:23:04;5.23;;;2.50;;
20721;SDS011;10522;52.198;9.890;2023-07-30T09:25:30;7.37;;;2.30;;
20721;SDS011;10522;52.198;9.890;2023-07-30T09:27:56;5.77;;;1.87;;
20721;SDS011;10522;52.198;9.890;2023-07-30T09:30:24;8.80;;;2.50;;
20721;SDS011;10522;52.198;9.890;2023-07-30T09:32:54;5.63;;;2.00;;
20721;SDS011;10522;52.198;9.890;2023-07-30T09:35:21;4.53;;;2.37;;
20721;SDS011;10522;52.198;9.890;2023-07-30T09:37:50;3.77;;;1.87;;
20721;SDS011;10522;52.198;9.890;2023-07-30T09:40:30;7.53;;;2.20;;
20721;SDS011;10522;52.198;9.890;2023-07-30T09:43:02;5.63;;;2.23;;
20721;SDS011;10522;52.198;9.890;2023-07-30T09:45:31;6.00;;;2.30;;
20721;SDS011;10522;52.198;9.890;2023-07-30T09:48:00;4.57;;;2.27;;
20721;SDS011;10522;52.198;9.890;2023-07-30T09:50:29;5.77;;;2.23;;
20721;SDS011;10522;52.198;9.890;2023-07-30T09:52:54;6.57;;;2.10;;
20721;SDS011;10522;52.198;9.890;2023-07-30T09:55:23;8.20;;;2.10;;
20721;SDS011;10522;52.198;9.890;2023-07-30T09:57:51;5.80;;;2.30;;
20721;SDS011;10522;52.198;9.890;2023-07-30T10:00:17;7.87;;;2.27;;
20721;SDS011;10522;52.198;9.890;2023-07-30T10:02:46;4.90;;;2.40;;
20721;SDS011;10522;52.198;9.890;2023-07-30T10:05:17;6.43;;;2.30;;
20721;SDS011;10522;52.198;9.890;2023-07-30T10:07:47;11.60;;;2.77;;
20721;SDS011;10522;52.198;9.890;2023-07-30T10:10:49;7.33;;;2.83;;
20721;SDS011;10522;52.198;9.890;2023-07-30T10:13:16;9.73;;;2.40;;
20721;SDS011;10522;52.198;9.890;2023-07-30T10:15:43;5.00;;;2.60;;
20721;SDS011;10522;52.198;9.890;2023-07-30T10:18:09;7.33;;;2.87;;
20721;SDS011;10522;52.198;9.890;2023-07-30T10:20:38;7.37;;;2.30;;
20721;SDS011;10522;52.198;9.890;2023-07-30T10:23:04;5.23;;;2.33;;
20721;SDS011;10522;52.198;9.890;2023-07-30T10:25:43;7.40;;;2.97;;
20721;SDS011;10522;52.198;9.890;2023-07-30T10:31:06;6.90;;;3.07;;
20721;SDS011;10522;52.198;9.890;2023-07-30T10:33:49;8.47;;;3.00;;
20721;SDS011;10522;52.198;9.890;2023-07-30T10:39:10;11.00;;;4.13;;
20721;SDS011;10522;52.198;9.890;2023-07-30T10:41:46;8.00;;;4.23;;
20721;SDS011;10522;52.198;9.890;2023-07-30T10:44:22;5.73;;;3.50;;
20721;SDS011;10522;52.198;9.890;2023-07-30T10:46:50;8.43;;;3.47;;
20721;SDS011;10522;52.198;9.890;2023-07-30T10:49:16;13.77;;;3.87;;
20721;SDS011;10522;52.198;9.890;2023-07-30T10:51:42;9.17;;;4.37;;
20721;SDS011;10522;52.198;9.890;2023-07-30T10:54:08;5.97;;;3.73;;
20721;SDS011;10522;52.198;9.890;2023-07-30T10:56:34;8.00;;;3.90;;
20721;SDS011;10522;52.198;9.890;2023-07-30T10:59:03;10.37;;;4.07;;
20721;SDS011;10522;52.198;9.890;2023-07-30T11:01:36;9.97;;;3.93;;
20721;SDS011;10522;52.198;9.890;2023-07-30T11:04:16;7.47;;;3.60;;
20721;SDS011;10522;52.198;9.890;2023-07-30T11:06:46;12.70;;;4.10;;
20721;SDS011;10522;52.198;9.890;2023-07-30T11:09:20;11.50;;;4.33;;
20721;SDS011;10522;52.198;9.890;2023-07-30T11:11:51;9.87;;;3.90;;
20721;SDS011;10522;52.198;9.890;2023-07-30T11:14:19;11.43;;;3.97;;
20721;SDS011;10522;52.198;9.890;2023-07-30T11:16:50;14.40;;;3.63;;
20721;SDS011;10522;52.198;9.890;2023-07-30T11:19:25;11.87;;;3.60;;
20721;SDS011;10522;52.198;9.890;2023-07-30T11:21:52;11.83;;;4.83;;
20721;SDS011;10522;52.198;9.890;2023-07-30T11:24:34;13.23;;;4.10;;
20721;SDS011;10522;52.198;9.890;2023-07-30T11:27:00;8.53;;;3.50;;
20721;SDS011;10522;52.198;9.890;2023-07-30T11:29:27;9.43;;;3.43;;
20721;SDS011;10522;52.198;9.890;2023-07-30T11:31:55;11.43;;;3.60;;
20721;SDS011;10522;52.198;9.890;2023-07-30T11:34:24;11.33;;;3.90;;
20721;SDS011;10522;52.198;9.890;2023-07-30T11:36:51;8.13;;;4.10;;
20721;SDS011;10522;52.198;9.890;2023-07-30T11:39:18;7.43;;;3.53;;
20721;SDS011;10522;52.198;9.890;2023-07-30T11:41:44;11.70;;;4.23;;
20721;SDS011;10522;52.198;9.890;2023-07-30T11:46:56;6.57;;;3.20;;
20721;SDS011;10522;52.198;9.890;2023-07-30T11:49:22;8.30;;;3.83;;
20721;SDS011;10522;52.198;9.890;2023-07-30T11:51:48;8.07;;;3.47;;
20721;SDS011;10522;52.198;9.890;2023-07-30T11:54:21;8.27;;;4.13;;
20721;SDS011;10522;52.198;9.890;2023-07-30T11:56:56;8.17;;;3.77;;
20721;SDS011;10522;52.198;9.890;2023-07-30T11:59:21;7.10;;;3.73;;
20721;SDS011;10522;52.198;9.890;2023-07-30T12:01:48;4.63;;;2.60;;
20721;SDS011;10522;52.198;9.890;2023-07-30T12:04:14;8.30;;;2.73;;
20721;SDS011;10522;52.198;9.890;2023-07-30T12:09:13;8.97;;;3.10;;
20721;SDS011;10522;52.198;9.890;2023-07-30T12:12:00;8.00;;;3.53;;
20721;SDS011;10522;52.198;9.890;2023-07-30T12:14:27;6.90;;;3.07;;
20721;SDS011;10522;52.198;9.890;2023-07-30T12:17:01;8.13;;;3.67;;
20721;SDS011;10522;52.198;9.890;2023-07-30T12:19:27;6.17;;;3.27;;
20721;SDS011;10522;52.198;9.890;2023-07-30T12:21:53;8.47;;;3.83;;
20721;SDS011;10522;52.198;9.890;2023-07-30T12:24:18;5.10;;;3.77;;
20721;SDS011;10522;52.198;9.890;2023-07-30T12:26:44;9.23;;;4.07;;
20721;SDS011;10522;52.198;9.890;2023-07-30T12:29:10;9.23;;;4.70;;
20721;SDS011;10522;52.198;9.890;2023-07-30T12:31:35;8.57;;;4.87;;
20721;SDS011;10522;52.198;9.890;2023-07-30T12:34:01;9.27;;;4.77;;
20721;SDS011;10522;52.198;9.890;2023-07-30T12:36:28;10.93;;;4.97;;
20721;SDS011;10522;52.198;9.890;2023-07-30T12:38:53;8.00;;;4.60;;
20721;SDS011;10522;52.198;9.890;2023-07-30T12:41:19;5.90;;;5.00;;
20721;SDS011;10522;52.198;9.890;2023-07-30T12:43:51;10.60;;;5.00;;
20721;SDS011;10522;52.198;9.890;2023-07-30T12:46:18;13.83;;;4.83;;
20721;SDS011;10522;52.198;9.890;2023-07-30T12:48:44;8.63;;;4.70;;
20721;SDS011;10522;52.198;9.890;2023-07-30T12:51:09;8.63;;;4.63;;
20721;SDS011;10522;52.198;9.890;2023-07-30T12:53:35;8.70;;;4.20;;
20721;SDS011;10522;52.198;9.890;2023-07-30T12:56:01;6.23;;;3.93;;
20721;SDS011;10522;52.198;9.890;2023-07-30T12:58:27;6.97;;;3.73;;
20721;SDS011;10522;52.198;9.890;2023-07-30T13:00:54;12.10;;;7.63;;
20721;SDS011;10522;52.198;9.890;2023-07-30T13:03:19;8.60;;;4.87;;
20721;SDS011;10522;52.198;9.890;2023-07-30T13:05:45;8.77;;;4.83;;
20721;SDS011;10522;52.198;9.890;2023-07-30T13:08:12;9.23;;;5.50;;
20721;SDS011;10522;52.198;9.890;2023-07-30T13:10:38;14.03;;;10.00;;
20721;SDS011;10522;52.198;9.890;2023-07-30T13:13:03;12.23;;;5.30;;
20721;SDS011;10522;52.198;9.890;2023-07-30T13:15:29;12.27;;;5.57;;
20721;SDS011;10522;52.198;9.890;2023-07-30T13:17:55;8.53;;;4.87;;
20721;SDS011;10522;52.198;9.890;2023-07-30T13:20:22;10.23;;;5.13;;
20721;SDS011;10522;52.198;9.890;2023-07-30T13:22:47;8.03;;;5.07;;
20721;SDS011;10522;52.198;9.890;2023-07-30T13:25:15;7.83;;;5.17;;
20721;SDS011;10522;52.198;9.890;2023-07-30T13:27:40;8.53;;;5.17;;
20721;SDS011;10522;52.198;9.890;2023-07-30T13:30:06;10.53;;;5.07;;
20721;SDS011;10522;52.198;9.890;2023-07-30T13:32:39;9.67;;;4.00;;
20721;SDS011;10522;52.198;9.890;2023-07-30T13:35:09;6.07;;;4.40;;
20721;SDS011;10522;52.198;9.890;2023-07-30T13:37:35;7.87;;;4.10;;
20721;SDS011;10522;52.198;9.890;2023-07-30T13:40:00;7.77;;;4.47;;
20721;SDS011;10522;52.198;9.890;2023-07-30T13:42:26;7.43;;;4.63;;
20721;SDS011;10522;52.198;9.890;2023-07-30T13:44:51;7.87;;;4.90;;
20721;SDS011;10522;52.198;9.890;2023-07-30T13:47:17;5.37;;;3.67;;
20721;SDS011;10522;52.198;9.890;2023-07-30T13:49:43;6.00;;;3.73;;
20721;SDS011;10522;52.198;9.890;2023-07-30T13:52:09;7.83;;;3.50;;
20721;SDS011;10522;52.198;9.890;2023-07-30T13:54:34;8.97;;;3.40;;
20721;SDS011;10522;52.198;9.890;2023-07-30T13:57:03;7.30;;;4.40;;
20721;SDS011;10522;52.198;9.890;2023-07-30T13:59:30;8.17;;;3.80;;
20721;SDS011;10522;52.198;9.890;2023-07-30T14:01:56;6.93;;;3.60;;
20721;SDS011;10522;52.198;9.890;2023-07-30T14:04:21;7.43;;;3.87;;
20721;SDS011;10522;52.198;9.890;2023-07-30T14:06:47;11.30;;;3.77;;
20721;SDS011;10522;52.198;9.890;2023-07-30T14:09:12;9.00;;;4.30;;
20721;SDS011;10522;52.198;9.890;2023-07-30T14:11:38;6.93;;;3.47;;
20721;SDS011;10522;52.198;9.890;2023-07-30T14:14:06;5.37;;;3.00;;
20721;SDS011;10522;52.198;9.890;2023-07-30T14:16:31;4.43;;;2.50;;
20721;SDS011;10522;52.198;9.890;2023-07-30T14:18:57;4.53;;;3.27;;
20721;SDS011;10522;52.198;9.890;2023-07-30T14:21:24;8.97;;;2.90;;
20721;SDS011;10522;52.198;9.890;2023-07-30T14:23:49;9.60;;;2.93;;
20721;SDS011;10522;52.198;9.890;2023-07-30T14:26:15;7.20;;;2.60;;
20721;SDS011;10522;52.198;9.890;2023-07-30T14:28:44;9.93;;;2.87;;
20721;SDS011;10522;52.198;9.890;2023-07-30T14:31:10;7.70;;;2.60;;
20721;SDS011;10522;52.198;9.890;2023-07-30T14:33:45;6.33;;;2.53;;
20721;SDS011;10522;52.198;9.890;2023-07-30T14:36:16;7.00;;;2.33;;
20721;SDS011;10522;52.198;9.890;2023-07-30T14:38:42;8.13;;;2.67;;
20721;SDS011;10522;52.198;9.890;2023-07-30T14:41:08;5.10;;;2.17;;
20721;SDS011;10522;52.198;9.890;2023-07-30T14:43:34;6.70;;;2.30;;
20721;SDS011;10522;52.198;9.890;2023-07-30T14:46:01;9.03;;;2.53;;
20721;SDS011;10522;52.198;9.890;2023-07-30T14:48:27;7.93;;;2.93;;
20721;SDS011;10522;52.198;9.890;2023-07-30T14:50:53;7.13;;;2.77;;
20721;SDS011;10522;52.198;9.890;2023-07-30T14:53:19;9.17;;;2.23;;